Aeroporto :
LOGIN :

Iscrizione | Disclaimer

   EN    FR    IT 

 










Sommario :    VFR   VFR Marginale   IFR   IFR Intensivo   IFR Molto Intensivo
Visibilità : 
Base nubi : 
>= 8 km
>= 3000ft
5 / 8 km
1000 / 3000 ft
1500m / 5 km
500 / 1000 ft
800 / 1500m
200 / 500 ft
< 800m
< 200 ft
Simboli :   Temporali  Nebbia  Neve Forte  Precipitazioni Forti  Vento > 20 kt
SIGMETs :   Varie  Temporali  Ghiacco  Turbolenza  Onda orograficha  Ceneri Vulcaniche






- Altitudine del aeroporto : 1860 ft
- Codice IATA : GRX


LEGR - Granada

ULTIMO METAR :
  • 271400Z 29008KT 250V350 CAVOK 26/06 Q1013

METARs OBSOLETI :
  • 271330Z 30007KT 260V350 CAVOK 26/06 Q1013
  • 271300Z VRB05KT CAVOK 26/06 Q1014
  • 271230Z VRB02KT CAVOK 25/06 Q1014
  • 271200Z VRB02KT CAVOK 24/06 Q1015
  • 271130Z VRB01KT CAVOK 24/06 Q1015
  • 271100Z VRB02KT CAVOK 23/06 Q1015

TAF TAF LEGR
Valido dal 27 a 09 ore il 28 a 09 ore UTC


270800Z 2709/2809 VRB02KT CAVOK TX27/2715Z TN10/2806Z
PROB30
TEMPO 2710/2713 03010KT
PROB40
TEMPO 2715/2718 32010KT



MetMap, La meteo Aeronautica in un colpo d'occhio ! - Copyright ORBIFLY Dicembre 2007 - Disclaimer

ORBIFLY MET'MAP TEAM :

Programmazione e sviluppo : Alexandra Zaïnal
Concezione : Baudouin d'Aumeries
Aiuto per la programmazione : Marc-Olivier Méhu
Supporto tecnico e logistico : Manuel Goepfert
Aiuto per la traduzione : Arnaldo La Scala

Contatto : metmap@orbifly.com




FONTI E CREDITI :

   NOAA